Terminal Aerodrome Forecast
Issued by NWS

Home | Current Version | Previous Version | Text Only | Print | Product List | Glossary On
Versions: 1 2 3 4 5 6 7 8 9 10 11 12 13 14 15 16 17 18 19 20 21 22 23 24 25 26 27 28 29 30 31 32 33 34
000
FTUS43 KLOT 312200 AAB
TAFMDW
TAF AMD
KMDW 312202Z 3122/0118 36023G36KT 5SM -RASN SCT025 BKN035
      TEMPO 3122/3124 1SM -SHSN OVC025
     FM010000 36020G32KT 4SM -SHSN SCT020 BKN030
     FM010300 36016G25KT 2SM -SHSN OVC018
     FM010900 36013G19KT 4SM -SHSN BKN020
     FM011300 01012G18KT P6SM OVC020=

USA.gov is the U.S. government's official web portal to all federal, state and local government web resources and services.